sensor_id;sensor_type;location;lat;lon;timestamp;temperature;humidity
49379;DHT22;35254;47.990;-1.608;2023-03-11T00:00:32;18.80;49.30
49379;DHT22;35254;47.990;-1.608;2023-03-11T00:03:02;18.80;49.40
49379;DHT22;35254;47.990;-1.608;2023-03-11T00:05:31;18.80;49.30
49379;DHT22;35254;47.990;-1.608;2023-03-11T00:07:57;18.80;49.30
49379;DHT22;35254;47.990;-1.608;2023-03-11T00:10:29;18.80;49.20
49379;DHT22;35254;47.990;-1.608;2023-03-11T00:12:55;18.80;49.20
49379;DHT22;35254;47.990;-1.608;2023-03-11T00:15:21;18.80;49.10
49379;DHT22;35254;47.990;-1.608;2023-03-11T00:17:47;18.70;49.20
49379;DHT22;35254;47.990;-1.608;2023-03-11T00:20:36;18.70;49.30
49379;DHT22;35254;47.990;-1.608;2023-03-11T00:23:04;18.80;49.30
49379;DHT22;35254;47.990;-1.608;2023-03-11T00:25:31;18.80;49.30
49379;DHT22;35254;47.990;-1.608;2023-03-11T00:27:57;18.80;49.30
49379;DHT22;35254;47.990;-1.608;2023-03-11T00:30:24;18.70;49.30
49379;DHT22;35254;47.990;-1.608;2023-03-11T00:32:51;18.80;49.40
49379;DHT22;35254;47.990;-1.608;2023-03-11T00:35:23;18.80;49.30
49379;DHT22;35254;47.990;-1.608;2023-03-11T00:37:52;18.80;49.40
49379;DHT22;35254;47.990;-1.608;2023-03-11T00:40:18;18.80;49.30
49379;DHT22;35254;47.990;-1.608;2023-03-11T00:42:45;18.80;49.40
49379;DHT22;35254;47.990;-1.608;2023-03-11T00:45:11;18.70;49.30
49379;DHT22;35254;47.990;-1.608;2023-03-11T00:47:37;18.80;49.30
49379;DHT22;35254;47.990;-1.608;2023-03-11T00:50:04;18.80;49.30
49379;DHT22;35254;47.990;-1.608;2023-03-11T00:52:30;18.80;49.20
49379;DHT22;35254;47.990;-1.608;2023-03-11T00:54:55;18.80;49.30
49379;DHT22;35254;47.990;-1.608;2023-03-11T00:57:22;18.80;49.20
49379;DHT22;35254;47.990;-1.608;2023-03-11T00:59:48;18.80;49.20
49379;DHT22;35254;47.990;-1.608;2023-03-11T01:02:13;18.80;49.10
49379;DHT22;35254;47.990;-1.608;2023-03-11T01:04:39;18.80;49.20
49379;DHT22;35254;47.990;-1.608;2023-03-11T01:07:04;18.80;49.20
49379;DHT22;35254;47.990;-1.608;2023-03-11T01:09:30;18.80;49.30
49379;DHT22;35254;47.990;-1.608;2023-03-11T01:11:56;18.80;49.30
49379;DHT22;35254;47.990;-1.608;2023-03-11T01:14:22;18.80;49.30
49379;DHT22;35254;47.990;-1.608;2023-03-11T01:16:47;18.80;49.30
49379;DHT22;35254;47.990;-1.608;2023-03-11T01:19:13;18.80;49.30
49379;DHT22;35254;47.990;-1.608;2023-03-11T01:21:39;18.80;49.30
49379;DHT22;35254;47.990;-1.608;2023-03-11T01:24:05;18.80;49.30
49379;DHT22;35254;47.990;-1.608;2023-03-11T01:26:31;18.80;49.30
49379;DHT22;35254;47.990;-1.608;2023-03-11T01:28:56;18.80;49.30
49379;DHT22;35254;47.990;-1.608;2023-03-11T01:31:22;18.80;49.20
49379;DHT22;35254;47.990;-1.608;2023-03-11T01:33:47;18.80;49.20
49379;DHT22;35254;47.990;-1.608;2023-03-11T01:36:13;18.80;49.20
49379;DHT22;35254;47.990;-1.608;2023-03-11T01:38:38;18.80;49.20
49379;DHT22;35254;47.990;-1.608;2023-03-11T01:41:05;18.80;49.20
49379;DHT22;35254;47.990;-1.608;2023-03-11T01:46:13;18.80;49.20
49379;DHT22;35254;47.990;-1.608;2023-03-11T01:48:41;18.80;49.20
49379;DHT22;35254;47.990;-1.608;2023-03-11T01:51:09;18.80;49.30
49379;DHT22;35254;47.990;-1.608;2023-03-11T01:53:35;18.80;49.20
49379;DHT22;35254;47.990;-1.608;2023-03-11T01:56:02;18.80;49.20
49379;DHT22;35254;47.990;-1.608;2023-03-11T01:58:33;18.80;49.20
49379;DHT22;35254;47.990;-1.608;2023-03-11T02:01:00;18.80;49.10
49379;DHT22;35254;47.990;-1.608;2023-03-11T02:03:30;18.80;49.10
49379;DHT22;35254;47.990;-1.608;2023-03-11T02:05:57;18.80;49.10
49379;DHT22;35254;47.990;-1.608;2023-03-11T02:08:24;18.80;49.10
49379;DHT22;35254;47.990;-1.608;2023-03-11T02:10:51;18.80;49.10
49379;DHT22;35254;47.990;-1.608;2023-03-11T02:13:17;18.80;49.00
49379;DHT22;35254;47.990;-1.608;2023-03-11T02:15:44;18.80;49.00
49379;DHT22;35254;47.990;-1.608;2023-03-11T02:18:11;18.80;49.00
49379;DHT22;35254;47.990;-1.608;2023-03-11T02:21:29;18.80;49.00
49379;DHT22;35254;47.990;-1.608;2023-03-11T02:26:40;18.80;48.90
49379;DHT22;35254;47.990;-1.608;2023-03-11T02:29:09;18.80;49.00
49379;DHT22;35254;47.990;-1.608;2023-03-11T02:31:40;18.80;49.10
49379;DHT22;35254;47.990;-1.608;2023-03-11T02:34:12;18.80;49.00
49379;DHT22;35254;47.990;-1.608;2023-03-11T02:36:41;18.80;49.00
49379;DHT22;35254;47.990;-1.608;2023-03-11T02:39:08;18.70;49.00
49379;DHT22;35254;47.990;-1.608;2023-03-11T02:41:36;18.80;49.00
49379;DHT22;35254;47.990;-1.608;2023-03-11T02:44:06;18.80;48.90
49379;DHT22;35254;47.990;-1.608;2023-03-11T02:46:33;18.80;49.00
49379;DHT22;35254;47.990;-1.608;2023-03-11T02:48:59;18.80;48.90
49379;DHT22;35254;47.990;-1.608;2023-03-11T02:51:26;18.80;48.90
49379;DHT22;35254;47.990;-1.608;2023-03-11T02:53:55;18.80;48.90
49379;DHT22;35254;47.990;-1.608;2023-03-11T02:56:22;18.80;48.80
49379;DHT22;35254;47.990;-1.608;2023-03-11T02:58:47;18.70;48.70
49379;DHT22;35254;47.990;-1.608;2023-03-11T03:01:13;18.80;48.80
49379;DHT22;35254;47.990;-1.608;2023-03-11T03:03:39;18.80;48.80
49379;DHT22;35254;47.990;-1.608;2023-03-11T03:06:04;18.80;48.70
49379;DHT22;35254;47.990;-1.608;2023-03-11T03:08:30;18.80;48.70
49379;DHT22;35254;47.990;-1.608;2023-03-11T03:10:56;18.70;48.60
49379;DHT22;35254;47.990;-1.608;2023-03-11T03:13:24;18.70;48.70
49379;DHT22;35254;47.990;-1.608;2023-03-11T03:15:50;18.70;48.60
49379;DHT22;35254;47.990;-1.608;2023-03-11T03:18:16;18.80;48.60
49379;DHT22;35254;47.990;-1.608;2023-03-11T03:20:42;18.80;48.60
49379;DHT22;35254;47.990;-1.608;2023-03-11T03:23:07;18.80;48.60
49379;DHT22;35254;47.990;-1.608;2023-03-11T03:25:33;18.80;48.60
49379;DHT22;35254;47.990;-1.608;2023-03-11T03:27:59;18.80;48.60
49379;DHT22;35254;47.990;-1.608;2023-03-11T03:30:24;18.70;48.60
49379;DHT22;35254;47.990;-1.608;2023-03-11T03:32:50;18.80;48.70
49379;DHT22;35254;47.990;-1.608;2023-03-11T03:35:16;18.70;48.70
49379;DHT22;35254;47.990;-1.608;2023-03-11T03:37:41;18.70;48.70
49379;DHT22;35254;47.990;-1.608;2023-03-11T03:40:08;18.70;48.70
49379;DHT22;35254;47.990;-1.608;2023-03-11T03:42:35;18.70;48.70
49379;DHT22;35254;47.990;-1.608;2023-03-11T03:45:02;18.70;48.70
49379;DHT22;35254;47.990;-1.608;2023-03-11T03:47:27;18.70;48.70
49379;DHT22;35254;47.990;-1.608;2023-03-11T03:49:53;18.70;48.80
49379;DHT22;35254;47.990;-1.608;2023-03-11T03:52:19;18.80;48.80
49379;DHT22;35254;47.990;-1.608;2023-03-11T03:54:44;18.70;48.70
49379;DHT22;35254;47.990;-1.608;2023-03-11T03:57:10;18.70;48.70
49379;DHT22;35254;47.990;-1.608;2023-03-11T03:59:36;18.70;48.60
49379;DHT22;35254;47.990;-1.608;2023-03-11T04:02:01;18.70;48.60
49379;DHT22;35254;47.990;-1.608;2023-03-11T04:04:27;18.70;48.60
49379;DHT22;35254;47.990;-1.608;2023-03-11T04:06:53;18.80;48.60
49379;DHT22;35254;47.990;-1.608;2023-03-11T04:09:19;18.80;48.60
49379;DHT22;35254;47.990;-1.608;2023-03-11T04:11:45;18.70;48.60
49379;DHT22;35254;47.990;-1.608;2023-03-11T04:14:11;18.70;48.60
49379;DHT22;35254;47.990;-1.608;2023-03-11T04:16:36;18.70;48.50
49379;DHT22;35254;47.990;-1.608;2023-03-11T04:19:02;18.70;48.60
49379;DHT22;35254;47.990;-1.608;2023-03-11T04:21:30;18.70;48.50
49379;DHT22;35254;47.990;-1.608;2023-03-11T04:23:56;18.70;48.40
49379;DHT22;35254;47.990;-1.608;2023-03-11T04:26:22;18.70;48.50
49379;DHT22;35254;47.990;-1.608;2023-03-11T04:28:47;18.80;48.40
49379;DHT22;35254;47.990;-1.608;2023-03-11T04:31:13;18.70;48.50
49379;DHT22;35254;47.990;-1.608;2023-03-11T04:33:38;18.70;48.40
49379;DHT22;35254;47.990;-1.608;2023-03-11T04:36:06;18.80;48.30
49379;DHT22;35254;47.990;-1.608;2023-03-11T04:38:32;18.70;48.30
49379;DHT22;35254;47.990;-1.608;2023-03-11T04:41:01;18.70;48.30
49379;DHT22;35254;47.990;-1.608;2023-03-11T04:43:27;18.70;48.10
49379;DHT22;35254;47.990;-1.608;2023-03-11T04:45:53;18.80;48.30
49379;DHT22;35254;47.990;-1.608;2023-03-11T04:48:19;18.80;48.30
49379;DHT22;35254;47.990;-1.608;2023-03-11T04:50:44;18.80;48.20
49379;DHT22;35254;47.990;-1.608;2023-03-11T04:53:10;18.80;48.20
49379;DHT22;35254;47.990;-1.608;2023-03-11T04:55:36;18.80;48.20
49379;DHT22;35254;47.990;-1.608;2023-03-11T04:58:02;18.80;48.20
49379;DHT22;35254;47.990;-1.608;2023-03-11T05:00:28;18.80;48.10
49379;DHT22;35254;47.990;-1.608;2023-03-11T05:02:54;18.70;48.10
49379;DHT22;35254;47.990;-1.608;2023-03-11T05:05:19;18.80;48.20
49379;DHT22;35254;47.990;-1.608;2023-03-11T05:07:45;18.70;48.10
49379;DHT22;35254;47.990;-1.608;2023-03-11T05:10:11;18.70;48.10
49379;DHT22;35254;47.990;-1.608;2023-03-11T05:12:37;18.70;48.20
49379;DHT22;35254;47.990;-1.608;2023-03-11T05:15:03;18.70;48.00
49379;DHT22;35254;47.990;-1.608;2023-03-11T05:17:28;18.70;48.00
49379;DHT22;35254;47.990;-1.608;2023-03-11T05:19:54;18.70;48.00
49379;DHT22;35254;47.990;-1.608;2023-03-11T05:22:20;18.70;47.90
49379;DHT22;35254;47.990;-1.608;2023-03-11T05:24:46;18.70;48.00
49379;DHT22;35254;47.990;-1.608;2023-03-11T05:27:12;18.70;48.00
49379;DHT22;35254;47.990;-1.608;2023-03-11T05:29:40;18.70;48.00
49379;DHT22;35254;47.990;-1.608;2023-03-11T05:32:07;18.70;48.00
49379;DHT22;35254;47.990;-1.608;2023-03-11T05:34:32;18.70;48.00
49379;DHT22;35254;47.990;-1.608;2023-03-11T05:36:58;18.70;48.10
49379;DHT22;35254;47.990;-1.608;2023-03-11T05:39:23;18.70;48.10
49379;DHT22;35254;47.990;-1.608;2023-03-11T05:41:49;18.70;48.10
49379;DHT22;35254;47.990;-1.608;2023-03-11T05:44:15;18.70;48.20
49379;DHT22;35254;47.990;-1.608;2023-03-11T05:46:40;18.70;48.10
49379;DHT22;35254;47.990;-1.608;2023-03-11T05:49:06;18.70;48.20
49379;DHT22;35254;47.990;-1.608;2023-03-11T05:51:31;18.70;48.10
49379;DHT22;35254;47.990;-1.608;2023-03-11T05:53:57;18.70;48.30
49379;DHT22;35254;47.990;-1.608;2023-03-11T05:56:23;18.70;48.20
49379;DHT22;35254;47.990;-1.608;2023-03-11T05:58:49;18.80;48.20
49379;DHT22;35254;47.990;-1.608;2023-03-11T06:01:17;18.80;48.20
49379;DHT22;35254;47.990;-1.608;2023-03-11T06:03:43;18.70;48.10
49379;DHT22;35254;47.990;-1.608;2023-03-11T06:06:10;18.70;48.00
49379;DHT22;35254;47.990;-1.608;2023-03-11T06:08:36;18.70;48.10
49379;DHT22;35254;47.990;-1.608;2023-03-11T06:11:07;18.70;48.00
49379;DHT22;35254;47.990;-1.608;2023-03-11T06:13:34;18.70;48.00
49379;DHT22;35254;47.990;-1.608;2023-03-11T06:15:59;18.80;48.00
49379;DHT22;35254;47.990;-1.608;2023-03-11T06:18:26;18.80;48.00
49379;DHT22;35254;47.990;-1.608;2023-03-11T06:20:52;18.70;48.00
49379;DHT22;35254;47.990;-1.608;2023-03-11T06:23:18;18.80;48.00
49379;DHT22;35254;47.990;-1.608;2023-03-11T06:25:44;18.80;48.00
49379;DHT22;35254;47.990;-1.608;2023-03-11T06:28:09;18.70;47.90
49379;DHT22;35254;47.990;-1.608;2023-03-11T06:30:35;18.80;47.90
49379;DHT22;35254;47.990;-1.608;2023-03-11T06:33:01;18.80;48.00
49379;DHT22;35254;47.990;-1.608;2023-03-11T06:35:26;18.80;48.00
49379;DHT22;35254;47.990;-1.608;2023-03-11T06:37:52;18.70;48.00
49379;DHT22;35254;47.990;-1.608;2023-03-11T06:40:18;18.80;48.10
49379;DHT22;35254;47.990;-1.608;2023-03-11T06:42:46;18.70;48.10
49379;DHT22;35254;47.990;-1.608;2023-03-11T06:45:12;18.80;48.00
49379;DHT22;35254;47.990;-1.608;2023-03-11T06:47:38;18.80;48.00
49379;DHT22;35254;47.990;-1.608;2023-03-11T06:50:05;18.80;48.10
49379;DHT22;35254;47.990;-1.608;2023-03-11T06:52:33;18.80;48.10
49379;DHT22;35254;47.990;-1.608;2023-03-11T06:54:59;18.70;48.10
49379;DHT22;35254;47.990;-1.608;2023-03-11T06:57:24;18.80;48.10
49379;DHT22;35254;47.990;-1.608;2023-03-11T06:59:51;18.80;48.00
49379;DHT22;35254;47.990;-1.608;2023-03-11T07:02:16;18.80;47.90
49379;DHT22;35254;47.990;-1.608;2023-03-11T07:04:42;18.80;47.90
49379;DHT22;35254;47.990;-1.608;2023-03-11T07:07:08;18.80;47.90
49379;DHT22;35254;47.990;-1.608;2023-03-11T07:09:33;18.80;47.90
49379;DHT22;35254;47.990;-1.608;2023-03-11T07:11:59;18.80;47.90
49379;DHT22;35254;47.990;-1.608;2023-03-11T07:14:24;18.80;48.00
49379;DHT22;35254;47.990;-1.608;2023-03-11T07:16:50;18.80;47.90
49379;DHT22;35254;47.990;-1.608;2023-03-11T07:19:16;18.80;47.90
49379;DHT22;35254;47.990;-1.608;2023-03-11T07:21:41;18.80;48.10
49379;DHT22;35254;47.990;-1.608;2023-03-11T07:24:07;18.80;48.20
49379;DHT22;35254;47.990;-1.608;2023-03-11T07:26:35;18.80;48.30
49379;DHT22;35254;47.990;-1.608;2023-03-11T07:29:01;18.80;48.40
49379;DHT22;35254;47.990;-1.608;2023-03-11T07:31:29;18.90;48.40
49379;DHT22;35254;47.990;-1.608;2023-03-11T07:34:00;18.80;48.40
49379;DHT22;35254;47.990;-1.608;2023-03-11T07:36:27;18.90;48.40
49379;DHT22;35254;47.990;-1.608;2023-03-11T07:38:57;18.80;48.40
49379;DHT22;35254;47.990;-1.608;2023-03-11T07:41:24;18.90;48.70
49379;DHT22;35254;47.990;-1.608;2023-03-11T07:43:53;18.90;49.10
49379;DHT22;35254;47.990;-1.608;2023-03-11T07:46:21;19.00;49.20
49379;DHT22;35254;47.990;-1.608;2023-03-11T07:48:47;19.00;49.30
49379;DHT22;35254;47.990;-1.608;2023-03-11T07:51:16;19.10;49.10
49379;DHT22;35254;47.990;-1.608;2023-03-11T07:53:43;19.10;49.00
49379;DHT22;35254;47.990;-1.608;2023-03-11T07:56:10;19.10;48.90
49379;DHT22;35254;47.990;-1.608;2023-03-11T07:58:37;19.10;48.70
49379;DHT22;35254;47.990;-1.608;2023-03-11T08:01:08;19.10;48.70
49379;DHT22;35254;47.990;-1.608;2023-03-11T08:03:35;19.10;48.60
49379;DHT22;35254;47.990;-1.608;2023-03-11T08:06:01;19.10;48.60
49379;DHT22;35254;47.990;-1.608;2023-03-11T08:08:27;19.10;48.50
49379;DHT22;35254;47.990;-1.608;2023-03-11T08:10:52;19.20;48.30
49379;DHT22;35254;47.990;-1.608;2023-03-11T08:13:19;19.10;48.30
49379;DHT22;35254;47.990;-1.608;2023-03-11T08:15:45;19.20;48.20
49379;DHT22;35254;47.990;-1.608;2023-03-11T08:18:10;19.10;48.30
49379;DHT22;35254;47.990;-1.608;2023-03-11T08:20:36;19.10;48.40
49379;DHT22;35254;47.990;-1.608;2023-03-11T08:23:02;19.10;48.50
49379;DHT22;35254;47.990;-1.608;2023-03-11T08:25:28;19.10;48.80
49379;DHT22;35254;47.990;-1.608;2023-03-11T08:27:54;19.10;49.20
49379;DHT22;35254;47.990;-1.608;2023-03-11T08:30:20;19.10;49.40
49379;DHT22;35254;47.990;-1.608;2023-03-11T08:32:45;19.10;49.50
49379;DHT22;35254;47.990;-1.608;2023-03-11T08:35:11;19.10;49.80
49379;DHT22;35254;47.990;-1.608;2023-03-11T08:37:37;19.10;49.90
49379;DHT22;35254;47.990;-1.608;2023-03-11T08:40:03;19.10;49.60
49379;DHT22;35254;47.990;-1.608;2023-03-11T08:42:29;19.20;49.80
49379;DHT22;35254;47.990;-1.608;2023-03-11T08:44:55;19.20;49.90
49379;DHT22;35254;47.990;-1.608;2023-03-11T08:47:20;19.20;50.00
49379;DHT22;35254;47.990;-1.608;2023-03-11T08:49:46;19.20;49.80
49379;DHT22;35254;47.990;-1.608;2023-03-11T08:52:12;19.20;49.70
49379;DHT22;35254;47.990;-1.608;2023-03-11T08:54:37;19.20;49.50
49379;DHT22;35254;47.990;-1.608;2023-03-11T08:57:03;19.20;49.40
49379;DHT22;35254;47.990;-1.608;2023-03-11T08:59:29;19.20;49.40
49379;DHT22;35254;47.990;-1.608;2023-03-11T09:01:55;19.30;49.30
49379;DHT22;35254;47.990;-1.608;2023-03-11T09:04:21;19.20;49.30
49379;DHT22;35254;47.990;-1.608;2023-03-11T09:06:46;19.20;49.30
49379;DHT22;35254;47.990;-1.608;2023-03-11T09:09:13;19.20;49.30
49379;DHT22;35254;47.990;-1.608;2023-03-11T09:11:41;19.20;49.30
49379;DHT22;35254;47.990;-1.608;2023-03-11T09:14:06;19.20;49.30
49379;DHT22;35254;47.990;-1.608;2023-03-11T09:16:32;19.20;49.50
49379;DHT22;35254;47.990;-1.608;2023-03-11T09:18:58;19.20;49.50
49379;DHT22;35254;47.990;-1.608;2023-03-11T09:21:34;19.20;49.50
49379;DHT22;35254;47.990;-1.608;2023-03-11T09:24:01;19.20;49.50
49379;DHT22;35254;47.990;-1.608;2023-03-11T09:26:31;19.20;49.50
49379;DHT22;35254;47.990;-1.608;2023-03-11T09:28:57;19.20;49.50
49379;DHT22;35254;47.990;-1.608;2023-03-11T09:31:22;19.20;49.60
49379;DHT22;35254;47.990;-1.608;2023-03-11T09:33:48;19.20;49.60
49379;DHT22;35254;47.990;-1.608;2023-03-11T09:36:18;19.20;49.60
49379;DHT22;35254;47.990;-1.608;2023-03-11T09:38:44;19.20;49.70
49379;DHT22;35254;47.990;-1.608;2023-03-11T09:43:46;19.20;49.40
49379;DHT22;35254;47.990;-1.608;2023-03-11T09:47:21;19.30;49.50
49379;DHT22;35254;47.990;-1.608;2023-03-11T09:54:25;19.30;49.50
49379;DHT22;35254;47.990;-1.608;2023-03-11T09:56:55;19.30;49.50
49379;DHT22;35254;47.990;-1.608;2023-03-11T09:59:30;19.30;49.60
49379;DHT22;35254;47.990;-1.608;2023-03-11T10:01:56;19.30;49.60
49379;DHT22;35254;47.990;-1.608;2023-03-11T10:04:26;19.40;49.70
49379;DHT22;35254;47.990;-1.608;2023-03-11T10:06:55;19.40;49.50
49379;DHT22;35254;47.990;-1.608;2023-03-11T10:09:39;19.40;49.40
49379;DHT22;35254;47.990;-1.608;2023-03-11T10:15:13;19.40;49.40
49379;DHT22;35254;47.990;-1.608;2023-03-11T10:17:56;19.40;49.30
49379;DHT22;35254;47.990;-1.608;2023-03-11T10:26:41;19.50;49.20
49379;DHT22;35254;47.990;-1.608;2023-03-11T10:29:27;19.50;49.20
49379;DHT22;35254;47.990;-1.608;2023-03-11T10:32:01;19.40;49.20
49379;DHT22;35254;47.990;-1.608;2023-03-11T10:34:36;19.30;49.40
49379;DHT22;35254;47.990;-1.608;2023-03-11T10:37:15;19.30;49.30
49379;DHT22;35254;47.990;-1.608;2023-03-11T10:39:46;19.30;49.40
49379;DHT22;35254;47.990;-1.608;2023-03-11T10:42:15;19.40;49.40
49379;DHT22;35254;47.990;-1.608;2023-03-11T10:44:42;19.40;49.30
49379;DHT22;35254;47.990;-1.608;2023-03-11T10:47:21;19.50;49.30
49379;DHT22;35254;47.990;-1.608;2023-03-11T10:49:47;19.50;49.30
49379;DHT22;35254;47.990;-1.608;2023-03-11T10:52:13;19.50;49.40
49379;DHT22;35254;47.990;-1.608;2023-03-11T10:54:43;19.60;49.40
49379;DHT22;35254;47.990;-1.608;2023-03-11T10:57:34;19.60;49.70
49379;DHT22;35254;47.990;-1.608;2023-03-11T11:00:04;19.60;49.90
49379;DHT22;35254;47.990;-1.608;2023-03-11T11:02:53;19.60;50.00
49379;DHT22;35254;47.990;-1.608;2023-03-11T11:05:30;19.60;49.90
49379;DHT22;35254;47.990;-1.608;2023-03-11T11:10:31;19.60;49.90
49379;DHT22;35254;47.990;-1.608;2023-03-11T11:15:35;19.60;50.00
49379;DHT22;35254;47.990;-1.608;2023-03-11T11:18:13;19.60;50.10
49379;DHT22;35254;47.990;-1.608;2023-03-11T11:23:35;19.50;50.00
49379;DHT22;35254;47.990;-1.608;2023-03-11T11:26:03;19.50;50.00
49379;DHT22;35254;47.990;-1.608;2023-03-11T11:28:30;19.50;50.00
49379;DHT22;35254;47.990;-1.608;2023-03-11T11:30:59;19.50;50.20
49379;DHT22;35254;47.990;-1.608;2023-03-11T11:36:17;19.50;50.00
49379;DHT22;35254;47.990;-1.608;2023-03-11T11:38:43;19.40;50.00
49379;DHT22;35254;47.990;-1.608;2023-03-11T11:41:13;19.40;50.00
49379;DHT22;35254;47.990;-1.608;2023-03-11T11:46:38;19.30;50.20
49379;DHT22;35254;47.990;-1.608;2023-03-11T11:57:16;19.30;50.40
49379;DHT22;35254;47.990;-1.608;2023-03-11T11:59:43;19.20;50.50
49379;DHT22;35254;47.990;-1.608;2023-03-11T12:07:32;19.20;50.60
49379;DHT22;35254;47.990;-1.608;2023-03-11T12:12:52;19.30;50.60
49379;DHT22;35254;47.990;-1.608;2023-03-11T12:15:29;19.30;50.70
49379;DHT22;35254;47.990;-1.608;2023-03-11T12:18:02;19.30;50.70
49379;DHT22;35254;47.990;-1.608;2023-03-11T12:20:36;19.30;50.70
49379;DHT22;35254;47.990;-1.608;2023-03-11T12:23:19;19.30;50.70
49379;DHT22;35254;47.990;-1.608;2023-03-11T12:25:56;19.30;50.80
49379;DHT22;35254;47.990;-1.608;2023-03-11T12:28:58;19.30;50.80
49379;DHT22;35254;47.990;-1.608;2023-03-11T12:31:28;19.30;50.90
49379;DHT22;35254;47.990;-1.608;2023-03-11T12:34:01;19.30;51.20
49379;DHT22;35254;47.990;-1.608;2023-03-11T12:36:32;19.20;51.80
49379;DHT22;35254;47.990;-1.608;2023-03-11T12:39:00;19.20;51.70
49379;DHT22;35254;47.990;-1.608;2023-03-11T12:41:34;19.20;52.20
49379;DHT22;35254;47.990;-1.608;2023-03-11T12:49:23;19.30;51.60
49379;DHT22;35254;47.990;-1.608;2023-03-11T12:54:37;19.30;51.80
49379;DHT22;35254;47.990;-1.608;2023-03-11T13:01:02;19.30;51.60
49379;DHT22;35254;47.990;-1.608;2023-03-11T13:06:02;19.40;51.20
49379;DHT22;35254;47.990;-1.608;2023-03-11T13:14:25;19.50;51.40
49379;DHT22;35254;47.990;-1.608;2023-03-11T13:16:51;19.40;51.60
49379;DHT22;35254;47.990;-1.608;2023-03-11T13:21:58;19.60;51.70
49379;DHT22;35254;47.990;-1.608;2023-03-11T13:41:31;19.70;59.50
49379;DHT22;35254;47.990;-1.608;2023-03-11T13:46:46;19.70;58.00
49379;DHT22;35254;47.990;-1.608;2023-03-11T13:51:55;19.70;57.20
49379;DHT22;35254;47.990;-1.608;2023-03-11T13:54:34;19.70;56.90
49379;DHT22;35254;47.990;-1.608;2023-03-11T13:57:02;19.70;56.70
49379;DHT22;35254;47.990;-1.608;2023-03-11T13:59:32;19.70;56.30
49379;DHT22;35254;47.990;-1.608;2023-03-11T14:04:31;19.70;55.70
49379;DHT22;35254;47.990;-1.608;2023-03-11T14:06:58;19.70;55.80
49379;DHT22;35254;47.990;-1.608;2023-03-11T14:09:25;19.70;56.30
49379;DHT22;35254;47.990;-1.608;2023-03-11T14:11:53;19.70;56.40
49379;DHT22;35254;47.990;-1.608;2023-03-11T14:14:45;19.80;56.40
49379;DHT22;35254;47.990;-1.608;2023-03-11T14:17:18;19.80;56.20
49379;DHT22;35254;47.990;-1.608;2023-03-11T14:20:05;19.80;56.40
49379;DHT22;35254;47.990;-1.608;2023-03-11T14:22:32;19.90;56.40
49379;DHT22;35254;47.990;-1.608;2023-03-11T14:25:00;19.90;56.60
49379;DHT22;35254;47.990;-1.608;2023-03-11T14:27:30;19.90;56.30
49379;DHT22;35254;47.990;-1.608;2023-03-11T14:29:56;19.90;57.30
49379;DHT22;35254;47.990;-1.608;2023-03-11T14:32:25;19.90;57.70
49379;DHT22;35254;47.990;-1.608;2023-03-11T14:34:52;19.90;57.50
49379;DHT22;35254;47.990;-1.608;2023-03-11T14:37:36;19.90;57.40
49379;DHT22;35254;47.990;-1.608;2023-03-11T14:40:20;19.90;57.30
49379;DHT22;35254;47.990;-1.608;2023-03-11T14:42:47;19.90;57.20
49379;DHT22;35254;47.990;-1.608;2023-03-11T14:45:20;20.00;57.20
49379;DHT22;35254;47.990;-1.608;2023-03-11T14:50:23;20.00;57.10
49379;DHT22;35254;47.990;-1.608;2023-03-11T14:53:04;20.00;57.20
49379;DHT22;35254;47.990;-1.608;2023-03-11T14:55:36;20.00;57.00
49379;DHT22;35254;47.990;-1.608;2023-03-11T14:58:06;20.10;57.40
49379;DHT22;35254;47.990;-1.608;2023-03-11T15:00:37;20.10;57.00
49379;DHT22;35254;47.990;-1.608;2023-03-11T15:03:10;20.00;56.90
49379;DHT22;35254;47.990;-1.608;2023-03-11T15:08:08;20.10;56.60
49379;DHT22;35254;47.990;-1.608;2023-03-11T15:10:34;20.10;56.80
49379;DHT22;35254;47.990;-1.608;2023-03-11T15:13:12;20.10;56.40
49379;DHT22;35254;47.990;-1.608;2023-03-11T15:15:38;20.20;56.10
49379;DHT22;35254;47.990;-1.608;2023-03-11T15:18:21;20.20;56.20
49379;DHT22;35254;47.990;-1.608;2023-03-11T15:21:00;20.20;56.20
49379;DHT22;35254;47.990;-1.608;2023-03-11T15:23:27;20.20;55.90
49379;DHT22;35254;47.990;-1.608;2023-03-11T15:25:52;20.10;56.00
49379;DHT22;35254;47.990;-1.608;2023-03-11T15:28:23;20.10;56.30
49379;DHT22;35254;47.990;-1.608;2023-03-11T15:30:50;20.10;56.50
49379;DHT22;35254;47.990;-1.608;2023-03-11T15:33:22;20.10;57.30
49379;DHT22;35254;47.990;-1.608;2023-03-11T15:35:48;20.20;58.20
49379;DHT22;35254;47.990;-1.608;2023-03-11T15:38:19;20.20;58.80
49379;DHT22;35254;47.990;-1.608;2023-03-11T15:40:57;20.20;59.10
49379;DHT22;35254;47.990;-1.608;2023-03-11T15:43:32;20.20;59.00
49379;DHT22;35254;47.990;-1.608;2023-03-11T15:46:01;20.20;58.30
49379;DHT22;35254;47.990;-1.608;2023-03-11T15:48:27;20.20;58.10
49379;DHT22;35254;47.990;-1.608;2023-03-11T15:50:56;20.30;57.40
49379;DHT22;35254;47.990;-1.608;2023-03-11T15:53:24;20.30;57.00
49379;DHT22;35254;47.990;-1.608;2023-03-11T15:55:51;20.20;56.90
49379;DHT22;35254;47.990;-1.608;2023-03-11T15:58:18;20.20;56.70
49379;DHT22;35254;47.990;-1.608;2023-03-11T16:00:47;20.20;56.70
49379;DHT22;35254;47.990;-1.608;2023-03-11T16:03:14;20.20;56.60
49379;DHT22;35254;47.990;-1.608;2023-03-11T16:05:39;20.20;56.50
49379;DHT22;35254;47.990;-1.608;2023-03-11T16:08:06;20.20;56.30
49379;DHT22;35254;47.990;-1.608;2023-03-11T16:10:32;20.20;56.60
49379;DHT22;35254;47.990;-1.608;2023-03-11T16:12:57;20.20;56.90
49379;DHT22;35254;47.990;-1.608;2023-03-11T16:15:32;20.20;57.40
49379;DHT22;35254;47.990;-1.608;2023-03-11T16:17:59;20.30;57.70
49379;DHT22;35254;47.990;-1.608;2023-03-11T16:20:31;20.20;58.10
49379;DHT22;35254;47.990;-1.608;2023-03-11T16:22:58;20.30;57.80
49379;DHT22;35254;47.990;-1.608;2023-03-11T16:25:29;20.30;57.30
49379;DHT22;35254;47.990;-1.608;2023-03-11T16:27:55;20.30;57.40
49379;DHT22;35254;47.990;-1.608;2023-03-11T16:30:23;20.30;58.10
49379;DHT22;35254;47.990;-1.608;2023-03-11T16:32:48;20.20;57.90
49379;DHT22;35254;47.990;-1.608;2023-03-11T16:35:14;20.30;57.80
49379;DHT22;35254;47.990;-1.608;2023-03-11T16:37:40;20.30;57.40
49379;DHT22;35254;47.990;-1.608;2023-03-11T16:40:15;20.40;57.60
49379;DHT22;35254;47.990;-1.608;2023-03-11T16:42:41;20.40;57.40
49379;DHT22;35254;47.990;-1.608;2023-03-11T16:45:09;20.40;57.90
49379;DHT22;35254;47.990;-1.608;2023-03-11T16:47:35;20.30;58.90
49379;DHT22;35254;47.990;-1.608;2023-03-11T16:50:01;20.40;58.90
49379;DHT22;35254;47.990;-1.608;2023-03-11T16:52:26;20.30;58.40
49379;DHT22;35254;47.990;-1.608;2023-03-11T16:54:52;20.30;58.50
49379;DHT22;35254;47.990;-1.608;2023-03-11T16:57:18;20.40;58.40
49379;DHT22;35254;47.990;-1.608;2023-03-11T16:59:43;20.40;59.00
49379;DHT22;35254;47.990;-1.608;2023-03-11T17:02:10;20.50;58.80
49379;DHT22;35254;47.990;-1.608;2023-03-11T17:04:36;20.50;59.30
49379;DHT22;35254;47.990;-1.608;2023-03-11T17:07:04;20.50;59.00